Cerquilho, Brazil
Current Conditions -  °F | °C
As of 12:00 AM on Sunday 26 Oct 2014 (Local Time) from SBKP Reporting Station
Scattered Clouds Scattered Clouds  
Wind Chill: 70°   Ceiling: Unl
Heat Index: 70°   Visibility: 6mi
Dew Point: 64°   Wind: 2mph
Humidity: 83%   Direction: 50°NE
Pressure: 30"   Gusts: NA
Location:  23.15°S, 47.75°W
Report Text: SBKP 260200Z 05002KT 9999 FEW030 SCT100 21/18 Q1016
Loading
Personal Weather Stations






























Interactive Weather Map
Tropical Storm Tracking
New forecast layout! Learn more

10-Day Weather Forecast

Advertisements
Track Severe Weather on mobile